sensor_id;sensor_type;location;lat;lon;timestamp;P1;durP1;ratioP1;P2;durP2;ratioP2
27438;SDS011;14887;51.252;7.470;2022-08-21T00:01:24;10.90;;;6.33;;
27438;SDS011;14887;51.252;7.470;2022-08-21T00:03:53;10.63;;;6.80;;
27438;SDS011;14887;51.252;7.470;2022-08-21T00:06:20;18.73;;;6.23;;
27438;SDS011;14887;51.252;7.470;2022-08-21T00:08:46;18.47;;;6.70;;
27438;SDS011;14887;51.252;7.470;2022-08-21T00:11:12;17.97;;;7.50;;
27438;SDS011;14887;51.252;7.470;2022-08-21T00:13:39;11.53;;;6.50;;
27438;SDS011;14887;51.252;7.470;2022-08-21T00:16:04;15.10;;;8.07;;
27438;SDS011;14887;51.252;7.470;2022-08-21T00:18:30;11.10;;;6.90;;
27438;SDS011;14887;51.252;7.470;2022-08-21T00:20:56;12.40;;;7.10;;
27438;SDS011;14887;51.252;7.470;2022-08-21T00:23:21;20.87;;;6.77;;
27438;SDS011;14887;51.252;7.470;2022-08-21T00:25:47;15.93;;;6.83;;
27438;SDS011;14887;51.252;7.470;2022-08-21T00:28:13;14.83;;;5.90;;
27438;SDS011;14887;51.252;7.470;2022-08-21T00:30:39;27.30;;;7.97;;
27438;SDS011;14887;51.252;7.470;2022-08-21T00:33:06;15.47;;;6.93;;
27438;SDS011;14887;51.252;7.470;2022-08-21T00:35:34;11.17;;;6.63;;
27438;SDS011;14887;51.252;7.470;2022-08-21T00:38:02;11.73;;;6.07;;
27438;SDS011;14887;51.252;7.470;2022-08-21T00:40:31;10.60;;;6.20;;
27438;SDS011;14887;51.252;7.470;2022-08-21T00:43:00;16.93;;;7.17;;
27438;SDS011;14887;51.252;7.470;2022-08-21T00:45:27;18.07;;;7.30;;
27438;SDS011;14887;51.252;7.470;2022-08-21T00:47:53;18.47;;;7.33;;
27438;SDS011;14887;51.252;7.470;2022-08-21T00:50:20;16.80;;;8.50;;
27438;SDS011;14887;51.252;7.470;2022-08-21T00:52:48;14.13;;;7.10;;
27438;SDS011;14887;51.252;7.470;2022-08-21T00:55:16;18.93;;;8.90;;
27438;SDS011;14887;51.252;7.470;2022-08-21T00:57:44;13.33;;;8.57;;
27438;SDS011;14887;51.252;7.470;2022-08-21T01:00:20;20.53;;;8.20;;
27438;SDS011;14887;51.252;7.470;2022-08-21T01:02:49;30.57;;;7.80;;
27438;SDS011;14887;51.252;7.470;2022-08-21T01:05:15;18.83;;;6.90;;
27438;SDS011;14887;51.252;7.470;2022-08-21T01:07:41;15.20;;;7.90;;
27438;SDS011;14887;51.252;7.470;2022-08-21T01:10:07;19.67;;;7.10;;
27438;SDS011;14887;51.252;7.470;2022-08-21T01:12:34;20.93;;;7.60;;
27438;SDS011;14887;51.252;7.470;2022-08-21T01:15:01;11.70;;;6.83;;
27438;SDS011;14887;51.252;7.470;2022-08-21T01:17:28;14.77;;;6.73;;
27438;SDS011;14887;51.252;7.470;2022-08-21T01:19:59;15.43;;;6.40;;
27438;SDS011;14887;51.252;7.470;2022-08-21T01:22:25;15.80;;;7.43;;
27438;SDS011;14887;51.252;7.470;2022-08-21T01:24:51;14.93;;;6.67;;
27438;SDS011;14887;51.252;7.470;2022-08-21T01:27:17;16.03;;;6.90;;
27438;SDS011;14887;51.252;7.470;2022-08-21T01:29:45;14.60;;;6.97;;
27438;SDS011;14887;51.252;7.470;2022-08-21T01:32:13;19.63;;;7.70;;
27438;SDS011;14887;51.252;7.470;2022-08-21T01:34:42;9.23;;;6.03;;
27438;SDS011;14887;51.252;7.470;2022-08-21T01:37:09;18.27;;;6.87;;
27438;SDS011;14887;51.252;7.470;2022-08-21T01:39:36;16.33;;;7.80;;
27438;SDS011;14887;51.252;7.470;2022-08-21T01:42:02;15.47;;;6.87;;
27438;SDS011;14887;51.252;7.470;2022-08-21T01:44:29;15.87;;;6.53;;
27438;SDS011;14887;51.252;7.470;2022-08-21T01:46:55;10.40;;;6.00;;
27438;SDS011;14887;51.252;7.470;2022-08-21T01:49:22;11.97;;;6.90;;
27438;SDS011;14887;51.252;7.470;2022-08-21T01:51:48;16.87;;;6.03;;
27438;SDS011;14887;51.252;7.470;2022-08-21T01:54:13;17.13;;;6.97;;
27438;SDS011;14887;51.252;7.470;2022-08-21T01:56:41;14.43;;;7.27;;
27438;SDS011;14887;51.252;7.470;2022-08-21T01:59:10;21.00;;;7.43;;
27438;SDS011;14887;51.252;7.470;2022-08-21T02:01:36;20.10;;;8.00;;
27438;SDS011;14887;51.252;7.470;2022-08-21T02:04:02;17.33;;;8.13;;
27438;SDS011;14887;51.252;7.470;2022-08-21T02:06:28;14.90;;;7.63;;
27438;SDS011;14887;51.252;7.470;2022-08-21T02:08:53;15.27;;;6.57;;
27438;SDS011;14887;51.252;7.470;2022-08-21T02:11:19;25.70;;;6.50;;
27438;SDS011;14887;51.252;7.470;2022-08-21T02:13:45;18.47;;;8.20;;
27438;SDS011;14887;51.252;7.470;2022-08-21T02:16:11;16.83;;;8.00;;
27438;SDS011;14887;51.252;7.470;2022-08-21T02:18:37;22.53;;;7.80;;
27438;SDS011;14887;51.252;7.470;2022-08-21T02:21:02;20.43;;;8.57;;
27438;SDS011;14887;51.252;7.470;2022-08-21T02:23:30;26.13;;;7.53;;
27438;SDS011;14887;51.252;7.470;2022-08-21T02:26:03;14.03;;;7.27;;
27438;SDS011;14887;51.252;7.470;2022-08-21T02:28:31;18.47;;;7.07;;
27438;SDS011;14887;51.252;7.470;2022-08-21T02:30:57;12.33;;;7.67;;
27438;SDS011;14887;51.252;7.470;2022-08-21T02:33:23;26.73;;;8.10;;
27438;SDS011;14887;51.252;7.470;2022-08-21T02:35:50;15.60;;;7.40;;
27438;SDS011;14887;51.252;7.470;2022-08-21T02:38:19;14.27;;;6.33;;
27438;SDS011;14887;51.252;7.470;2022-08-21T02:40:47;17.33;;;8.30;;
27438;SDS011;14887;51.252;7.470;2022-08-21T02:43:14;17.80;;;6.63;;
27438;SDS011;14887;51.252;7.470;2022-08-21T02:45:40;15.80;;;7.83;;
27438;SDS011;14887;51.252;7.470;2022-08-21T02:48:09;14.50;;;6.93;;
27438;SDS011;14887;51.252;7.470;2022-08-21T02:50:44;19.13;;;8.67;;
27438;SDS011;14887;51.252;7.470;2022-08-21T02:53:17;13.00;;;7.50;;
27438;SDS011;14887;51.252;7.470;2022-08-21T02:55:43;13.23;;;6.90;;
27438;SDS011;14887;51.252;7.470;2022-08-21T02:58:10;15.23;;;6.87;;
27438;SDS011;14887;51.252;7.470;2022-08-21T03:00:37;13.03;;;6.60;;
27438;SDS011;14887;51.252;7.470;2022-08-21T03:03:04;19.27;;;7.00;;
27438;SDS011;14887;51.252;7.470;2022-08-21T03:05:30;12.73;;;6.33;;
27438;SDS011;14887;51.252;7.470;2022-08-21T03:07:58;16.27;;;6.30;;
27438;SDS011;14887;51.252;7.470;2022-08-21T03:10:24;29.40;;;7.70;;
27438;SDS011;14887;51.252;7.470;2022-08-21T03:12:50;14.03;;;7.57;;
27438;SDS011;14887;51.252;7.470;2022-08-21T03:15:18;19.00;;;6.77;;
27438;SDS011;14887;51.252;7.470;2022-08-21T03:17:45;16.80;;;6.40;;
27438;SDS011;14887;51.252;7.470;2022-08-21T03:20:13;20.00;;;7.50;;
27438;SDS011;14887;51.252;7.470;2022-08-21T03:22:40;16.50;;;7.67;;
27438;SDS011;14887;51.252;7.470;2022-08-21T03:25:06;19.10;;;8.87;;
27438;SDS011;14887;51.252;7.470;2022-08-21T03:27:33;24.57;;;7.70;;
27438;SDS011;14887;51.252;7.470;2022-08-21T03:29:59;15.80;;;7.87;;
27438;SDS011;14887;51.252;7.470;2022-08-21T03:32:25;13.70;;;6.93;;
27438;SDS011;14887;51.252;7.470;2022-08-21T03:34:51;14.53;;;7.10;;
27438;SDS011;14887;51.252;7.470;2022-08-21T03:37:16;20.53;;;8.47;;
27438;SDS011;14887;51.252;7.470;2022-08-21T03:39:42;15.23;;;6.97;;
27438;SDS011;14887;51.252;7.470;2022-08-21T03:42:08;16.40;;;8.47;;
27438;SDS011;14887;51.252;7.470;2022-08-21T03:44:34;16.90;;;7.70;;
27438;SDS011;14887;51.252;7.470;2022-08-21T03:47:00;17.83;;;8.47;;
27438;SDS011;14887;51.252;7.470;2022-08-21T03:49:26;19.03;;;8.10;;
27438;SDS011;14887;51.252;7.470;2022-08-21T03:51:52;13.40;;;7.43;;
27438;SDS011;14887;51.252;7.470;2022-08-21T03:54:18;40.50;;;9.57;;
27438;SDS011;14887;51.252;7.470;2022-08-21T03:56:44;18.30;;;7.90;;
27438;SDS011;14887;51.252;7.470;2022-08-21T03:59:09;13.67;;;7.00;;
27438;SDS011;14887;51.252;7.470;2022-08-21T04:01:35;16.03;;;8.57;;
27438;SDS011;14887;51.252;7.470;2022-08-21T04:04:01;18.53;;;9.37;;
27438;SDS011;14887;51.252;7.470;2022-08-21T04:06:28;15.43;;;8.10;;
27438;SDS011;14887;51.252;7.470;2022-08-21T04:08:54;23.37;;;8.50;;
27438;SDS011;14887;51.252;7.470;2022-08-21T04:11:19;16.60;;;8.27;;
27438;SDS011;14887;51.252;7.470;2022-08-21T04:13:45;22.33;;;10.13;;
27438;SDS011;14887;51.252;7.470;2022-08-21T04:16:12;20.27;;;7.50;;
27438;SDS011;14887;51.252;7.470;2022-08-21T04:18:38;13.13;;;7.60;;
27438;SDS011;14887;51.252;7.470;2022-08-21T04:21:04;24.37;;;8.70;;
27438;SDS011;14887;51.252;7.470;2022-08-21T04:23:31;13.97;;;7.60;;
27438;SDS011;14887;51.252;7.470;2022-08-21T04:25:57;16.93;;;7.60;;
27438;SDS011;14887;51.252;7.470;2022-08-21T04:28:24;19.40;;;7.80;;
27438;SDS011;14887;51.252;7.470;2022-08-21T04:30:51;20.37;;;8.10;;
27438;SDS011;14887;51.252;7.470;2022-08-21T04:33:17;16.07;;;7.40;;
27438;SDS011;14887;51.252;7.470;2022-08-21T04:35:43;18.83;;;7.00;;
27438;SDS011;14887;51.252;7.470;2022-08-21T04:38:09;13.20;;;7.27;;
27438;SDS011;14887;51.252;7.470;2022-08-21T04:40:34;20.40;;;7.03;;
27438;SDS011;14887;51.252;7.470;2022-08-21T04:43:01;13.03;;;7.40;;
27438;SDS011;14887;51.252;7.470;2022-08-21T04:45:32;17.00;;;7.40;;
27438;SDS011;14887;51.252;7.470;2022-08-21T04:48:00;16.97;;;6.73;;
27438;SDS011;14887;51.252;7.470;2022-08-21T04:50:34;14.63;;;7.17;;
27438;SDS011;14887;51.252;7.470;2022-08-21T04:56:18;16.03;;;6.77;;
27438;SDS011;14887;51.252;7.470;2022-08-21T04:58:54;21.13;;;7.40;;
27438;SDS011;14887;51.252;7.470;2022-08-21T05:01:22;21.17;;;7.30;;
27438;SDS011;14887;51.252;7.470;2022-08-21T05:03:50;23.70;;;7.60;;
27438;SDS011;14887;51.252;7.470;2022-08-21T05:06:18;19.20;;;7.43;;
27438;SDS011;14887;51.252;7.470;2022-08-21T05:08:45;29.83;;;7.60;;
27438;SDS011;14887;51.252;7.470;2022-08-21T05:11:13;15.80;;;6.90;;
27438;SDS011;14887;51.252;7.470;2022-08-21T05:13:39;20.10;;;7.17;;
27438;SDS011;14887;51.252;7.470;2022-08-21T05:16:07;20.30;;;7.40;;
27438;SDS011;14887;51.252;7.470;2022-08-21T05:18:33;13.73;;;7.30;;
27438;SDS011;14887;51.252;7.470;2022-08-21T05:20:58;19.03;;;8.63;;
27438;SDS011;14887;51.252;7.470;2022-08-21T05:23:24;15.67;;;7.80;;
27438;SDS011;14887;51.252;7.470;2022-08-21T05:25:51;18.50;;;7.60;;
27438;SDS011;14887;51.252;7.470;2022-08-21T05:28:17;12.10;;;7.40;;
27438;SDS011;14887;51.252;7.470;2022-08-21T05:30:43;17.00;;;7.37;;
27438;SDS011;14887;51.252;7.470;2022-08-21T05:33:09;19.80;;;7.00;;
27438;SDS011;14887;51.252;7.470;2022-08-21T05:35:35;12.53;;;7.30;;
27438;SDS011;14887;51.252;7.470;2022-08-21T05:38:02;22.60;;;7.70;;
27438;SDS011;14887;51.252;7.470;2022-08-21T05:40:28;14.83;;;8.17;;
27438;SDS011;14887;51.252;7.470;2022-08-21T05:42:54;23.63;;;7.90;;
27438;SDS011;14887;51.252;7.470;2022-08-21T05:45:26;12.43;;;6.10;;
27438;SDS011;14887;51.252;7.470;2022-08-21T05:47:53;18.73;;;6.97;;
27438;SDS011;14887;51.252;7.470;2022-08-21T05:50:19;11.07;;;6.70;;
27438;SDS011;14887;51.252;7.470;2022-08-21T05:52:44;16.00;;;6.63;;
27438;SDS011;14887;51.252;7.470;2022-08-21T05:55:10;18.10;;;7.03;;
27438;SDS011;14887;51.252;7.470;2022-08-21T05:57:35;17.53;;;6.57;;
27438;SDS011;14887;51.252;7.470;2022-08-21T06:00:02;37.77;;;6.17;;
27438;SDS011;14887;51.252;7.470;2022-08-21T06:02:28;15.43;;;6.43;;
27438;SDS011;14887;51.252;7.470;2022-08-21T06:04:55;17.47;;;5.47;;
27438;SDS011;14887;51.252;7.470;2022-08-21T06:07:21;17.97;;;6.53;;
27438;SDS011;14887;51.252;7.470;2022-08-21T06:09:47;11.40;;;5.37;;
27438;SDS011;14887;51.252;7.470;2022-08-21T06:12:13;15.07;;;5.50;;
27438;SDS011;14887;51.252;7.470;2022-08-21T06:14:39;10.40;;;5.80;;
27438;SDS011;14887;51.252;7.470;2022-08-21T06:17:07;12.57;;;6.07;;
27438;SDS011;14887;51.252;7.470;2022-08-21T06:19:34;15.67;;;5.77;;
27438;SDS011;14887;51.252;7.470;2022-08-21T06:22:00;22.73;;;6.33;;
27438;SDS011;14887;51.252;7.470;2022-08-21T06:24:26;13.50;;;5.60;;
27438;SDS011;14887;51.252;7.470;2022-08-21T06:26:52;19.50;;;6.40;;
27438;SDS011;14887;51.252;7.470;2022-08-21T06:29:18;14.50;;;5.17;;
27438;SDS011;14887;51.252;7.470;2022-08-21T06:31:45;22.10;;;6.60;;
27438;SDS011;14887;51.252;7.470;2022-08-21T06:34:12;18.27;;;5.47;;
27438;SDS011;14887;51.252;7.470;2022-08-21T06:36:39;11.67;;;4.90;;
27438;SDS011;14887;51.252;7.470;2022-08-21T06:39:04;14.13;;;5.77;;
27438;SDS011;14887;51.252;7.470;2022-08-21T06:41:30;14.50;;;5.80;;
27438;SDS011;14887;51.252;7.470;2022-08-21T06:43:57;13.43;;;4.40;;
27438;SDS011;14887;51.252;7.470;2022-08-21T06:46:24;10.67;;;5.17;;
27438;SDS011;14887;51.252;7.470;2022-08-21T06:48:54;15.63;;;4.53;;
27438;SDS011;14887;51.252;7.470;2022-08-21T06:51:20;15.97;;;5.97;;
27438;SDS011;14887;51.252;7.470;2022-08-21T06:53:45;12.33;;;5.30;;
27438;SDS011;14887;51.252;7.470;2022-08-21T06:56:12;8.70;;;5.47;;
27438;SDS011;14887;51.252;7.470;2022-08-21T06:58:38;13.57;;;5.30;;
27438;SDS011;14887;51.252;7.470;2022-08-21T07:01:03;8.43;;;5.40;;
27438;SDS011;14887;51.252;7.470;2022-08-21T07:03:31;8.67;;;4.73;;
27438;SDS011;14887;51.252;7.470;2022-08-21T07:06:00;19.97;;;5.40;;
27438;SDS011;14887;51.252;7.470;2022-08-21T07:08:26;13.57;;;5.70;;
27438;SDS011;14887;51.252;7.470;2022-08-21T07:10:53;9.90;;;5.60;;
27438;SDS011;14887;51.252;7.470;2022-08-21T07:13:21;13.50;;;6.13;;
27438;SDS011;14887;51.252;7.470;2022-08-21T07:15:47;15.63;;;6.20;;
27438;SDS011;14887;51.252;7.470;2022-08-21T07:18:13;14.83;;;7.30;;
27438;SDS011;14887;51.252;7.470;2022-08-21T07:20:39;16.00;;;7.03;;
27438;SDS011;14887;51.252;7.470;2022-08-21T07:23:06;21.47;;;7.77;;
27438;SDS011;14887;51.252;7.470;2022-08-21T07:25:34;16.80;;;7.20;;
27438;SDS011;14887;51.252;7.470;2022-08-21T07:28:00;11.60;;;6.90;;
27438;SDS011;14887;51.252;7.470;2022-08-21T07:30:26;16.70;;;7.00;;
27438;SDS011;14887;51.252;7.470;2022-08-21T07:32:53;14.87;;;7.10;;
27438;SDS011;14887;51.252;7.470;2022-08-21T07:35:19;17.03;;;7.27;;
27438;SDS011;14887;51.252;7.470;2022-08-21T07:37:45;18.77;;;8.13;;
27438;SDS011;14887;51.252;7.470;2022-08-21T07:40:11;18.37;;;7.30;;
27438;SDS011;14887;51.252;7.470;2022-08-21T07:42:42;10.27;;;6.93;;
27438;SDS011;14887;51.252;7.470;2022-08-21T07:45:09;15.93;;;7.47;;
27438;SDS011;14887;51.252;7.470;2022-08-21T07:47:36;12.50;;;7.73;;
27438;SDS011;14887;51.252;7.470;2022-08-21T07:50:02;14.63;;;7.70;;
27438;SDS011;14887;51.252;7.470;2022-08-21T07:52:27;14.70;;;7.17;;
27438;SDS011;14887;51.252;7.470;2022-08-21T07:54:53;22.00;;;7.90;;
27438;SDS011;14887;51.252;7.470;2022-08-21T07:57:19;13.07;;;7.83;;
27438;SDS011;14887;51.252;7.470;2022-08-21T07:59:44;14.30;;;7.73;;
27438;SDS011;14887;51.252;7.470;2022-08-21T08:02:10;14.27;;;7.13;;
27438;SDS011;14887;51.252;7.470;2022-08-21T08:04:46;12.10;;;6.60;;
27438;SDS011;14887;51.252;7.470;2022-08-21T08:07:11;25.13;;;7.67;;
27438;SDS011;14887;51.252;7.470;2022-08-21T08:09:37;17.57;;;8.40;;
27438;SDS011;14887;51.252;7.470;2022-08-21T08:12:02;13.40;;;6.77;;
27438;SDS011;14887;51.252;7.470;2022-08-21T08:14:28;23.27;;;7.90;;
27438;SDS011;14887;51.252;7.470;2022-08-21T08:16:54;17.37;;;7.00;;
27438;SDS011;14887;51.252;7.470;2022-08-21T08:19:19;11.33;;;7.63;;
27438;SDS011;14887;51.252;7.470;2022-08-21T08:21:45;16.93;;;7.70;;
27438;SDS011;14887;51.252;7.470;2022-08-21T08:24:11;14.67;;;7.17;;
27438;SDS011;14887;51.252;7.470;2022-08-21T08:26:36;17.03;;;7.50;;
27438;SDS011;14887;51.252;7.470;2022-08-21T08:29:02;15.97;;;6.37;;
27438;SDS011;14887;51.252;7.470;2022-08-21T08:31:28;23.90;;;6.80;;
27438;SDS011;14887;51.252;7.470;2022-08-21T08:33:53;14.63;;;5.60;;
27438;SDS011;14887;51.252;7.470;2022-08-21T08:36:19;14.60;;;6.70;;
27438;SDS011;14887;51.252;7.470;2022-08-21T08:38:45;17.53;;;7.33;;
27438;SDS011;14887;51.252;7.470;2022-08-21T08:41:13;11.60;;;7.33;;
27438;SDS011;14887;51.252;7.470;2022-08-21T08:43:54;13.53;;;6.40;;
27438;SDS011;14887;51.252;7.470;2022-08-21T08:46:31;16.03;;;7.00;;
27438;SDS011;14887;51.252;7.470;2022-08-21T08:49:24;18.13;;;7.70;;
27438;SDS011;14887;51.252;7.470;2022-08-21T08:55:07;14.80;;;7.30;;
27438;SDS011;14887;51.252;7.470;2022-08-21T08:57:36;15.23;;;6.93;;
27438;SDS011;14887;51.252;7.470;2022-08-21T09:00:07;13.93;;;5.90;;
27438;SDS011;14887;51.252;7.470;2022-08-21T09:02:37;12.87;;;5.30;;
27438;SDS011;14887;51.252;7.470;2022-08-21T09:05:05;15.27;;;5.33;;
27438;SDS011;14887;51.252;7.470;2022-08-21T09:10:30;19.57;;;5.30;;
27438;SDS011;14887;51.252;7.470;2022-08-21T09:13:28;15.77;;;5.23;;
27438;SDS011;14887;51.252;7.470;2022-08-21T09:22:08;9.27;;;3.60;;
27438;SDS011;14887;51.252;7.470;2022-08-21T09:27:23;7.73;;;2.60;;
27438;SDS011;14887;51.252;7.470;2022-08-21T09:29:50;10.10;;;3.20;;
27438;SDS011;14887;51.252;7.470;2022-08-21T09:35:06;9.43;;;2.77;;
27438;SDS011;14887;51.252;7.470;2022-08-21T09:37:46;10.83;;;3.13;;
27438;SDS011;14887;51.252;7.470;2022-08-21T09:43:23;7.30;;;2.73;;
27438;SDS011;14887;51.252;7.470;2022-08-21T09:46:00;7.03;;;2.23;;
27438;SDS011;14887;51.252;7.470;2022-08-21T09:48:38;9.13;;;2.60;;
27438;SDS011;14887;51.252;7.470;2022-08-21T09:51:19;9.33;;;2.83;;
27438;SDS011;14887;51.252;7.470;2022-08-21T09:54:34;6.77;;;2.37;;
27438;SDS011;14887;51.252;7.470;2022-08-21T09:56:37;12.63;;;2.73;;
27438;SDS011;14887;51.252;7.470;2022-08-21T09:59:34;7.93;;;2.23;;
27438;SDS011;14887;51.252;7.470;2022-08-21T10:02:01;9.17;;;2.80;;
27438;SDS011;14887;51.252;7.470;2022-08-21T10:04:48;8.93;;;2.67;;
27438;SDS011;14887;51.252;7.470;2022-08-21T10:07:20;9.93;;;2.33;;
27438;SDS011;14887;51.252;7.470;2022-08-21T10:09:57;14.43;;;2.83;;
27438;SDS011;14887;51.252;7.470;2022-08-21T10:12:39;7.83;;;2.80;;
27438;SDS011;14887;51.252;7.470;2022-08-21T10:15:47;9.93;;;2.80;;
27438;SDS011;14887;51.252;7.470;2022-08-21T10:18:25;7.80;;;2.90;;
27438;SDS011;14887;51.252;7.470;2022-08-21T10:28:47;4.47;;;2.10;;
27438;SDS011;14887;51.252;7.470;2022-08-21T10:31:50;9.30;;;2.50;;
27438;SDS011;14887;51.252;7.470;2022-08-21T10:34:34;13.00;;;2.50;;
27438;SDS011;14887;51.252;7.470;2022-08-21T10:40:08;10.80;;;2.83;;
27438;SDS011;14887;51.252;7.470;2022-08-21T10:45:49;6.53;;;2.30;;
27438;SDS011;14887;51.252;7.470;2022-08-21T10:48:28;6.70;;;2.40;;
27438;SDS011;14887;51.252;7.470;2022-08-21T10:53:49;7.10;;;2.30;;
27438;SDS011;14887;51.252;7.470;2022-08-21T10:56:30;5.50;;;2.47;;
27438;SDS011;14887;51.252;7.470;2022-08-21T11:06:57;6.63;;;1.70;;
27438;SDS011;14887;51.252;7.470;2022-08-21T11:09:26;6.23;;;2.50;;
27438;SDS011;14887;51.252;7.470;2022-08-21T11:14:46;8.47;;;2.50;;
27438;SDS011;14887;51.252;7.470;2022-08-21T11:17:34;6.23;;;2.20;;
27438;SDS011;14887;51.252;7.470;2022-08-21T11:22:38;7.90;;;2.17;;
27438;SDS011;14887;51.252;7.470;2022-08-21T11:25:14;7.33;;;2.00;;
27438;SDS011;14887;51.252;7.470;2022-08-21T11:27:49;8.10;;;2.70;;
27438;SDS011;14887;51.252;7.470;2022-08-21T11:30:19;6.73;;;2.07;;
27438;SDS011;14887;51.252;7.470;2022-08-21T11:32:55;14.80;;;2.87;;
27438;SDS011;14887;51.252;7.470;2022-08-21T11:46:23;6.50;;;2.30;;
27438;SDS011;14887;51.252;7.470;2022-08-21T11:49:25;7.90;;;2.00;;
27438;SDS011;14887;51.252;7.470;2022-08-21T11:52:19;5.77;;;2.07;;
27438;SDS011;14887;51.252;7.470;2022-08-21T11:54:50;9.53;;;1.90;;
27438;SDS011;14887;51.252;7.470;2022-08-21T11:57:24;6.83;;;2.03;;
27438;SDS011;14887;51.252;7.470;2022-08-21T12:00:03;12.97;;;2.30;;
27438;SDS011;14887;51.252;7.470;2022-08-21T12:02:34;7.10;;;1.80;;
27438;SDS011;14887;51.252;7.470;2022-08-21T12:05:06;13.20;;;2.03;;
27438;SDS011;14887;51.252;7.470;2022-08-21T12:07:39;5.60;;;1.70;;
27438;SDS011;14887;51.252;7.470;2022-08-21T12:10:09;8.90;;;2.17;;
27438;SDS011;14887;51.252;7.470;2022-08-21T12:12:37;11.60;;;1.90;;
27438;SDS011;14887;51.252;7.470;2022-08-21T12:17:37;5.00;;;1.77;;
27438;SDS011;14887;51.252;7.470;2022-08-21T12:22:55;8.23;;;1.73;;
27438;SDS011;14887;51.252;7.470;2022-08-21T12:28:10;6.70;;;1.77;;
27438;SDS011;14887;51.252;7.470;2022-08-21T12:30:40;5.83;;;1.77;;
27438;SDS011;14887;51.252;7.470;2022-08-21T12:35:53;11.80;;;6.30;;
27438;SDS011;14887;51.252;7.470;2022-08-21T12:38:51;5.50;;;2.83;;
27438;SDS011;14887;51.252;7.470;2022-08-21T12:41:21;3.37;;;1.33;;
27438;SDS011;14887;51.252;7.470;2022-08-21T12:43:57;3.07;;;1.50;;
27438;SDS011;14887;51.252;7.470;2022-08-21T12:46:36;4.67;;;1.33;;
27438;SDS011;14887;51.252;7.470;2022-08-21T12:49:14;6.83;;;1.73;;
27438;SDS011;14887;51.252;7.470;2022-08-21T12:51:59;4.63;;;1.30;;
27438;SDS011;14887;51.252;7.470;2022-08-21T12:54:38;6.93;;;1.40;;
27438;SDS011;14887;51.252;7.470;2022-08-21T12:57:08;5.77;;;1.53;;
27438;SDS011;14887;51.252;7.470;2022-08-21T12:59:42;4.40;;;1.43;;
27438;SDS011;14887;51.252;7.470;2022-08-21T13:02:15;5.30;;;1.60;;
27438;SDS011;14887;51.252;7.470;2022-08-21T13:04:44;4.87;;;1.40;;
27438;SDS011;14887;51.252;7.470;2022-08-21T13:07:12;2.57;;;1.27;;
27438;SDS011;14887;51.252;7.470;2022-08-21T13:09:44;2.70;;;1.20;;
27438;SDS011;14887;51.252;7.470;2022-08-21T13:12:20;4.80;;;1.23;;
27438;SDS011;14887;51.252;7.470;2022-08-21T13:14:48;4.67;;;1.27;;
27438;SDS011;14887;51.252;7.470;2022-08-21T13:17:21;5.03;;;1.60;;
27438;SDS011;14887;51.252;7.470;2022-08-21T13:20:05;3.17;;;1.23;;
27438;SDS011;14887;51.252;7.470;2022-08-21T13:22:40;4.53;;;1.37;;
27438;SDS011;14887;51.252;7.470;2022-08-21T13:25:11;7.70;;;1.50;;
27438;SDS011;14887;51.252;7.470;2022-08-21T13:27:38;6.30;;;1.70;;
27438;SDS011;14887;51.252;7.470;2022-08-21T13:30:06;3.80;;;1.63;;
27438;SDS011;14887;51.252;7.470;2022-08-21T13:32:35;7.87;;;1.33;;
27438;SDS011;14887;51.252;7.470;2022-08-21T13:35:15;4.80;;;1.50;;
27438;SDS011;14887;51.252;7.470;2022-08-21T13:37:42;3.40;;;1.40;;
27438;SDS011;14887;51.252;7.470;2022-08-21T13:40:10;2.77;;;1.10;;
27438;SDS011;14887;51.252;7.470;2022-08-21T13:42:40;3.10;;;2.00;;
27438;SDS011;14887;51.252;7.470;2022-08-21T13:45:24;2.90;;;1.10;;
27438;SDS011;14887;51.252;7.470;2022-08-21T13:47:56;8.10;;;1.10;;
27438;SDS011;14887;51.252;7.470;2022-08-21T13:50:24;3.43;;;1.43;;
27438;SDS011;14887;51.252;7.470;2022-08-21T13:52:57;6.90;;;1.27;;
27438;SDS011;14887;51.252;7.470;2022-08-21T13:55:25;7.40;;;1.33;;
27438;SDS011;14887;51.252;7.470;2022-08-21T13:58:04;4.40;;;1.07;;
27438;SDS011;14887;51.252;7.470;2022-08-21T14:00:31;2.10;;;1.10;;
27438;SDS011;14887;51.252;7.470;2022-08-21T14:03:09;2.70;;;1.00;;
27438;SDS011;14887;51.252;7.470;2022-08-21T14:05:37;3.23;;;1.10;;
27438;SDS011;14887;51.252;7.470;2022-08-21T14:10:47;5.70;;;1.93;;
27438;SDS011;14887;51.252;7.470;2022-08-21T14:13:37;3.33;;;1.30;;
27438;SDS011;14887;51.252;7.470;2022-08-21T14:19:07;5.10;;;1.10;;
27438;SDS011;14887;51.252;7.470;2022-08-21T14:21:37;2.33;;;1.13;;
27438;SDS011;14887;51.252;7.470;2022-08-21T14:26:43;4.93;;;1.07;;
27438;SDS011;14887;51.252;7.470;2022-08-21T14:29:21;5.00;;;2.10;;
27438;SDS011;14887;51.252;7.470;2022-08-21T14:31:54;4.20;;;1.37;;
27438;SDS011;14887;51.252;7.470;2022-08-21T14:34:22;7.43;;;1.40;;
27438;SDS011;14887;51.252;7.470;2022-08-21T14:36:50;6.37;;;2.17;;
27438;SDS011;14887;51.252;7.470;2022-08-21T14:39:16;4.23;;;1.70;;
27438;SDS011;14887;51.252;7.470;2022-08-21T14:41:42;2.40;;;1.37;;
27438;SDS011;14887;51.252;7.470;2022-08-21T14:44:08;2.07;;;1.10;;
27438;SDS011;14887;51.252;7.470;2022-08-21T14:46:35;1.93;;;1.10;;
27438;SDS011;14887;51.252;7.470;2022-08-21T14:49:02;2.70;;;1.30;;
27438;SDS011;14887;51.252;7.470;2022-08-21T14:51:28;3.93;;;1.50;;
27438;SDS011;14887;51.252;7.470;2022-08-21T14:53:54;1.50;;;1.13;;
27438;SDS011;14887;51.252;7.470;2022-08-21T14:56:20;5.03;;;1.30;;
27438;SDS011;14887;51.252;7.470;2022-08-21T14:58:47;2.10;;;1.10;;
27438;SDS011;14887;51.252;7.470;2022-08-21T15:01:15;3.33;;;1.13;;
27438;SDS011;14887;51.252;7.470;2022-08-21T15:03:43;1.93;;;1.13;;
27438;SDS011;14887;51.252;7.470;2022-08-21T15:06:09;3.33;;;1.10;;
27438;SDS011;14887;51.252;7.470;2022-08-21T15:08:35;1.53;;;0.90;;
27438;SDS011;14887;51.252;7.470;2022-08-21T15:11:01;3.10;;;1.30;;
27438;SDS011;14887;51.252;7.470;2022-08-21T15:13:28;3.97;;;1.00;;
27438;SDS011;14887;51.252;7.470;2022-08-21T15:15:55;1.23;;;0.90;;
27438;SDS011;14887;51.252;7.470;2022-08-21T15:18:22;2.50;;;1.00;;
27438;SDS011;14887;51.252;7.470;2022-08-21T15:20:49;5.80;;;1.77;;
27438;SDS011;14887;51.252;7.470;2022-08-21T15:23:15;1.87;;;1.10;;
27438;SDS011;14887;51.252;7.470;2022-08-21T15:25:42;1.77;;;1.10;;
27438;SDS011;14887;51.252;7.470;2022-08-21T15:28:09;2.37;;;1.10;;
27438;SDS011;14887;51.252;7.470;2022-08-21T15:30:36;5.23;;;1.07;;
27438;SDS011;14887;51.252;7.470;2022-08-21T15:33:02;1.57;;;1.00;;
27438;SDS011;14887;51.252;7.470;2022-08-21T15:35:29;5.28;;;0.90;;
27438;SDS011;14887;51.252;7.470;2022-08-21T15:37:54;2.90;;;1.00;;
27438;SDS011;14887;51.252;7.470;2022-08-21T15:40:20;2.07;;;0.97;;
27438;SDS011;14887;51.252;7.470;2022-08-21T15:42:45;2.30;;;1.20;;
27438;SDS011;14887;51.252;7.470;2022-08-21T15:45:11;2.63;;;1.30;;
27438;SDS011;14887;51.252;7.470;2022-08-21T15:47:38;4.30;;;1.00;;
27438;SDS011;14887;51.252;7.470;2022-08-21T15:50:07;2.80;;;1.40;;
27438;SDS011;14887;51.252;7.470;2022-08-21T15:52:34;2.40;;;1.37;;
27438;SDS011;14887;51.252;7.470;2022-08-21T15:54:59;3.77;;;2.10;;
27438;SDS011;14887;51.252;7.470;2022-08-21T15:57:25;2.70;;;1.20;;
27438;SDS011;14887;51.252;7.470;2022-08-21T15:59:55;3.47;;;1.77;;
27438;SDS011;14887;51.252;7.470;2022-08-21T16:02:27;3.57;;;1.13;;
27438;SDS011;14887;51.252;7.470;2022-08-21T16:04:55;4.37;;;1.03;;
27438;SDS011;14887;51.252;7.470;2022-08-21T16:07:20;6.53;;;1.10;;
27438;SDS011;14887;51.252;7.470;2022-08-21T16:09:46;3.17;;;2.07;;
27438;SDS011;14887;51.252;7.470;2022-08-21T16:12:13;3.27;;;1.40;;
27438;SDS011;14887;51.252;7.470;2022-08-21T16:14:47;3.73;;;1.63;;